KCNY/CNY METAR and TAF weather

Enter ICAO airport designator
Station Type Date Time Source
KCNY METAR 2020/11/27 01:53 UTC NOAA

KCNY 270153Z AUTO 25005KT 10SM SCT065 SCT090 OVC110 02/M06 A3012 RMK AO2 SLP220 T00171061


Station Type Date Time Source
KCNY Decoded METAR 2020/11/27 01:53 UTC NOAA

MOAB CANYONLANDS FIELD, UT, United States (KCNY) 38-46N 109-45W 1390M
Nov 26, 2020 - 08:53 PM EST / 2020.11.27 0153 UTC
Wind: from the WSW (250 degrees) at 6 MPH (5 KT):0
Visibility: 10 mile(s):0
Sky conditions: overcast
Temperature: 35.1 F (1.7 C)
Dew Point: 21.0 F (-6.1 C)
Relative Humidity: 56%
Pressure (altimeter): 30.12 in. Hg (1019 hPa)
ob: KCNY 270153Z AUTO 25005KT 10SM SCT065 SCT090 OVC110 02/M06 A3012 RMK AO2 SLP220 T00171061
cycle: 2

Station Type Date Time Source
KCNY TAF 2020/11/26 18:40 UTC NOAA

TAF KCNY 261738Z 2618/2718 33007KT P6SM SCT050 BKN070
FM270200 02007KT P6SM FEW090 SCT150
FM270800 VRB04KT P6SM FEW150

Example: see airport list